sensor_id;sensor_type;location;lat;lon;timestamp;temperature;humidity
35381;DHT22;21486;51.916;8.378;2024-03-25T00:00:44;5.60;99.90
35381;DHT22;21486;51.916;8.378;2024-03-25T00:03:10;5.60;99.90
35381;DHT22;21486;51.916;8.378;2024-03-25T00:05:35;5.60;99.90
35381;DHT22;21486;51.916;8.378;2024-03-25T00:08:02;5.50;99.90
35381;DHT22;21486;51.916;8.378;2024-03-25T00:10:27;5.60;99.90
35381;DHT22;21486;51.916;8.378;2024-03-25T00:12:53;5.50;99.90
35381;DHT22;21486;51.916;8.378;2024-03-25T00:15:20;5.40;99.90
35381;DHT22;21486;51.916;8.378;2024-03-25T00:17:47;5.40;99.90
35381;DHT22;21486;51.916;8.378;2024-03-25T00:20:13;5.50;99.90
35381;DHT22;21486;51.916;8.378;2024-03-25T00:22:40;5.50;99.90
35381;DHT22;21486;51.916;8.378;2024-03-25T00:25:06;5.40;99.90
35381;DHT22;21486;51.916;8.378;2024-03-25T00:27:32;5.40;99.90
35381;DHT22;21486;51.916;8.378;2024-03-25T00:29:58;5.50;99.90
35381;DHT22;21486;51.916;8.378;2024-03-25T00:32:24;5.50;99.90
35381;DHT22;21486;51.916;8.378;2024-03-25T00:34:50;5.40;99.90
35381;DHT22;21486;51.916;8.378;2024-03-25T00:37:15;5.50;99.90
35381;DHT22;21486;51.916;8.378;2024-03-25T00:39:41;5.50;99.90
35381;DHT22;21486;51.916;8.378;2024-03-25T00:42:06;5.50;99.90
35381;DHT22;21486;51.916;8.378;2024-03-25T00:44:32;5.50;99.90
35381;DHT22;21486;51.916;8.378;2024-03-25T00:46:57;5.50;99.90
35381;DHT22;21486;51.916;8.378;2024-03-25T00:49:23;5.50;99.90
35381;DHT22;21486;51.916;8.378;2024-03-25T00:51:49;5.50;99.90
35381;DHT22;21486;51.916;8.378;2024-03-25T00:54:14;5.50;99.90
35381;DHT22;21486;51.916;8.378;2024-03-25T00:56:40;5.50;99.90
35381;DHT22;21486;51.916;8.378;2024-03-25T00:59:05;5.50;99.90
35381;DHT22;21486;51.916;8.378;2024-03-25T01:01:32;5.60;99.90
35381;DHT22;21486;51.916;8.378;2024-03-25T01:03:58;5.60;99.90
35381;DHT22;21486;51.916;8.378;2024-03-25T01:06:24;5.50;99.90
35381;DHT22;21486;51.916;8.378;2024-03-25T01:08:50;5.40;99.90
35381;DHT22;21486;51.916;8.378;2024-03-25T01:11:16;5.40;99.90
35381;DHT22;21486;51.916;8.378;2024-03-25T01:13:41;5.50;99.90
35381;DHT22;21486;51.916;8.378;2024-03-25T01:16:08;5.50;99.90
35381;DHT22;21486;51.916;8.378;2024-03-25T01:18:33;5.50;99.90
35381;DHT22;21486;51.916;8.378;2024-03-25T01:20:59;5.40;99.90
35381;DHT22;21486;51.916;8.378;2024-03-25T01:23:25;5.50;99.90
35381;DHT22;21486;51.916;8.378;2024-03-25T01:25:50;5.50;99.90
35381;DHT22;21486;51.916;8.378;2024-03-25T01:28:16;5.50;99.90
35381;DHT22;21486;51.916;8.378;2024-03-25T01:30:41;5.50;99.90
35381;DHT22;21486;51.916;8.378;2024-03-25T01:33:07;5.50;99.90
35381;DHT22;21486;51.916;8.378;2024-03-25T01:35:34;5.50;99.90
35381;DHT22;21486;51.916;8.378;2024-03-25T01:37:59;5.60;99.90
35381;DHT22;21486;51.916;8.378;2024-03-25T01:40:25;5.50;99.90
35381;DHT22;21486;51.916;8.378;2024-03-25T01:43:10;5.50;99.90
35381;DHT22;21486;51.916;8.378;2024-03-25T01:45:36;5.50;99.90
35381;DHT22;21486;51.916;8.378;2024-03-25T01:48:04;5.50;99.90
35381;DHT22;21486;51.916;8.378;2024-03-25T01:50:34;5.40;99.90
35381;DHT22;21486;51.916;8.378;2024-03-25T01:53:01;5.40;99.90
35381;DHT22;21486;51.916;8.378;2024-03-25T01:55:29;5.30;99.90
35381;DHT22;21486;51.916;8.378;2024-03-25T01:57:56;5.30;99.90
35381;DHT22;21486;51.916;8.378;2024-03-25T02:00:23;5.30;99.90
35381;DHT22;21486;51.916;8.378;2024-03-25T02:02:50;5.30;99.90
35381;DHT22;21486;51.916;8.378;2024-03-25T02:05:17;5.30;99.90
35381;DHT22;21486;51.916;8.378;2024-03-25T02:07:44;5.30;99.90
35381;DHT22;21486;51.916;8.378;2024-03-25T02:10:10;5.30;99.90
35381;DHT22;21486;51.916;8.378;2024-03-25T02:12:37;5.30;99.90
35381;DHT22;21486;51.916;8.378;2024-03-25T02:15:05;5.30;99.90
35381;DHT22;21486;51.916;8.378;2024-03-25T02:17:30;5.30;99.90
35381;DHT22;21486;51.916;8.378;2024-03-25T02:19:56;5.20;99.90
35381;DHT22;21486;51.916;8.378;2024-03-25T02:22:22;5.30;99.90
35381;DHT22;21486;51.916;8.378;2024-03-25T02:24:52;5.30;99.90
35381;DHT22;21486;51.916;8.378;2024-03-25T02:27:18;5.30;99.90
35381;DHT22;21486;51.916;8.378;2024-03-25T02:29:44;5.20;99.90
35381;DHT22;21486;51.916;8.378;2024-03-25T02:32:10;5.30;99.90
35381;DHT22;21486;51.916;8.378;2024-03-25T02:34:48;5.30;99.90
35381;DHT22;21486;51.916;8.378;2024-03-25T02:37:14;5.30;99.90
35381;DHT22;21486;51.916;8.378;2024-03-25T02:39:41;5.40;99.90
35381;DHT22;21486;51.916;8.378;2024-03-25T02:42:06;5.30;99.90
35381;DHT22;21486;51.916;8.378;2024-03-25T02:44:33;5.40;99.90
35381;DHT22;21486;51.916;8.378;2024-03-25T02:46:59;5.30;99.90
35381;DHT22;21486;51.916;8.378;2024-03-25T02:49:25;5.30;99.90
35381;DHT22;21486;51.916;8.378;2024-03-25T02:51:50;5.40;99.90
35381;DHT22;21486;51.916;8.378;2024-03-25T02:54:16;5.30;99.90
35381;DHT22;21486;51.916;8.378;2024-03-25T02:56:43;5.40;99.90
35381;DHT22;21486;51.916;8.378;2024-03-25T02:59:09;5.30;99.90
35381;DHT22;21486;51.916;8.378;2024-03-25T03:01:35;5.40;99.90
35381;DHT22;21486;51.916;8.378;2024-03-25T03:04:00;5.40;99.90
35381;DHT22;21486;51.916;8.378;2024-03-25T03:06:26;5.40;99.90
35381;DHT22;21486;51.916;8.378;2024-03-25T03:08:52;5.40;99.90
35381;DHT22;21486;51.916;8.378;2024-03-25T03:11:17;5.30;99.90
35381;DHT22;21486;51.916;8.378;2024-03-25T03:13:43;5.30;99.90
35381;DHT22;21486;51.916;8.378;2024-03-25T03:16:08;5.30;99.90
35381;DHT22;21486;51.916;8.378;2024-03-25T03:18:34;5.30;99.90
35381;DHT22;21486;51.916;8.378;2024-03-25T03:21:00;5.30;99.90
35381;DHT22;21486;51.916;8.378;2024-03-25T03:23:25;5.30;99.90
35381;DHT22;21486;51.916;8.378;2024-03-25T03:25:51;5.40;99.90
35381;DHT22;21486;51.916;8.378;2024-03-25T03:28:17;5.30;99.90
35381;DHT22;21486;51.916;8.378;2024-03-25T03:30:43;5.20;99.90
35381;DHT22;21486;51.916;8.378;2024-03-25T03:33:09;5.30;99.90
35381;DHT22;21486;51.916;8.378;2024-03-25T03:35:34;5.30;99.90
35381;DHT22;21486;51.916;8.378;2024-03-25T03:38:00;5.20;99.90
35381;DHT22;21486;51.916;8.378;2024-03-25T03:40:25;5.20;99.90
35381;DHT22;21486;51.916;8.378;2024-03-25T03:42:51;5.20;99.90
35381;DHT22;21486;51.916;8.378;2024-03-25T03:45:16;5.10;99.90
35381;DHT22;21486;51.916;8.378;2024-03-25T03:47:42;5.10;99.90
35381;DHT22;21486;51.916;8.378;2024-03-25T03:50:08;5.10;99.90
35381;DHT22;21486;51.916;8.378;2024-03-25T03:52:33;5.10;99.90
35381;DHT22;21486;51.916;8.378;2024-03-25T03:54:59;5.10;99.90
35381;DHT22;21486;51.916;8.378;2024-03-25T03:57:25;5.00;99.90
35381;DHT22;21486;51.916;8.378;2024-03-25T03:59:51;5.00;99.90
35381;DHT22;21486;51.916;8.378;2024-03-25T04:02:17;5.00;99.90
35381;DHT22;21486;51.916;8.378;2024-03-25T04:04:43;4.90;99.90
35381;DHT22;21486;51.916;8.378;2024-03-25T04:07:08;5.10;99.90
35381;DHT22;21486;51.916;8.378;2024-03-25T04:09:34;4.90;99.90
35381;DHT22;21486;51.916;8.378;2024-03-25T04:11:59;4.90;99.90
35381;DHT22;21486;51.916;8.378;2024-03-25T04:14:26;5.00;99.90
35381;DHT22;21486;51.916;8.378;2024-03-25T04:16:52;5.00;99.90
35381;DHT22;21486;51.916;8.378;2024-03-25T04:19:19;4.90;99.90
35381;DHT22;21486;51.916;8.378;2024-03-25T04:21:44;4.90;99.90
35381;DHT22;21486;51.916;8.378;2024-03-25T04:24:10;4.90;99.90
35381;DHT22;21486;51.916;8.378;2024-03-25T04:26:35;4.90;99.90
35381;DHT22;21486;51.916;8.378;2024-03-25T04:29:01;4.90;99.90
35381;DHT22;21486;51.916;8.378;2024-03-25T04:31:26;4.90;99.90
35381;DHT22;21486;51.916;8.378;2024-03-25T04:33:52;4.90;99.90
35381;DHT22;21486;51.916;8.378;2024-03-25T04:36:17;5.00;99.90
35381;DHT22;21486;51.916;8.378;2024-03-25T04:38:43;5.10;99.90
35381;DHT22;21486;51.916;8.378;2024-03-25T04:41:08;5.10;99.90
35381;DHT22;21486;51.916;8.378;2024-03-25T04:43:34;5.10;99.90
35381;DHT22;21486;51.916;8.378;2024-03-25T04:46:02;5.10;99.90
35381;DHT22;21486;51.916;8.378;2024-03-25T04:48:28;4.90;99.90
35381;DHT22;21486;51.916;8.378;2024-03-25T04:50:54;5.00;99.90
35381;DHT22;21486;51.916;8.378;2024-03-25T04:53:20;5.00;99.90
35381;DHT22;21486;51.916;8.378;2024-03-25T04:55:46;5.00;99.90
35381;DHT22;21486;51.916;8.378;2024-03-25T04:58:11;4.90;99.90
35381;DHT22;21486;51.916;8.378;2024-03-25T05:00:37;4.90;99.90
35381;DHT22;21486;51.916;8.378;2024-03-25T05:03:02;5.00;99.90
35381;DHT22;21486;51.916;8.378;2024-03-25T05:05:29;4.90;99.90
35381;DHT22;21486;51.916;8.378;2024-03-25T05:07:54;5.00;99.90
35381;DHT22;21486;51.916;8.378;2024-03-25T05:10:21;5.00;99.90
35381;DHT22;21486;51.916;8.378;2024-03-25T05:12:46;5.00;99.90
35381;DHT22;21486;51.916;8.378;2024-03-25T05:15:14;5.20;99.90
35381;DHT22;21486;51.916;8.378;2024-03-25T05:17:40;5.10;99.90
35381;DHT22;21486;51.916;8.378;2024-03-25T05:20:06;5.20;99.90
35381;DHT22;21486;51.916;8.378;2024-03-25T05:22:32;5.10;99.90
35381;DHT22;21486;51.916;8.378;2024-03-25T05:24:57;5.20;99.90
35381;DHT22;21486;51.916;8.378;2024-03-25T05:27:23;5.20;99.90
35381;DHT22;21486;51.916;8.378;2024-03-25T05:29:51;5.20;99.90
35381;DHT22;21486;51.916;8.378;2024-03-25T05:32:17;5.10;99.90
35381;DHT22;21486;51.916;8.378;2024-03-25T05:34:43;5.20;99.90
35381;DHT22;21486;51.916;8.378;2024-03-25T05:37:08;5.10;99.90
35381;DHT22;21486;51.916;8.378;2024-03-25T05:39:34;5.10;99.90
35381;DHT22;21486;51.916;8.378;2024-03-25T05:41:59;5.20;99.90
35381;DHT22;21486;51.916;8.378;2024-03-25T05:44:25;5.20;99.90
35381;DHT22;21486;51.916;8.378;2024-03-25T05:46:50;5.10;99.90
35381;DHT22;21486;51.916;8.378;2024-03-25T05:49:16;5.10;99.90
35381;DHT22;21486;51.916;8.378;2024-03-25T05:51:41;5.10;99.90
35381;DHT22;21486;51.916;8.378;2024-03-25T05:54:07;5.20;99.90
35381;DHT22;21486;51.916;8.378;2024-03-25T05:56:32;5.10;99.90
35381;DHT22;21486;51.916;8.378;2024-03-25T05:59:00;5.10;99.90
35381;DHT22;21486;51.916;8.378;2024-03-25T06:01:26;5.10;99.90
35381;DHT22;21486;51.916;8.378;2024-03-25T06:03:52;5.20;99.90
35381;DHT22;21486;51.916;8.378;2024-03-25T06:06:18;5.20;99.90
35381;DHT22;21486;51.916;8.378;2024-03-25T06:08:44;5.20;99.90
35381;DHT22;21486;51.916;8.378;2024-03-25T06:11:09;5.30;99.90
35381;DHT22;21486;51.916;8.378;2024-03-25T06:13:35;5.40;99.90
35381;DHT22;21486;51.916;8.378;2024-03-25T06:16:00;5.30;99.90
35381;DHT22;21486;51.916;8.378;2024-03-25T06:18:26;5.30;99.90
35381;DHT22;21486;51.916;8.378;2024-03-25T06:20:51;5.20;99.90
35381;DHT22;21486;51.916;8.378;2024-03-25T06:23:27;5.30;99.90
35381;DHT22;21486;51.916;8.378;2024-03-25T06:25:54;5.40;99.90
35381;DHT22;21486;51.916;8.378;2024-03-25T06:28:21;5.40;99.90
35381;DHT22;21486;51.916;8.378;2024-03-25T06:30:47;5.40;99.90
35381;DHT22;21486;51.916;8.378;2024-03-25T06:33:31;5.40;99.90
35381;DHT22;21486;51.916;8.378;2024-03-25T06:36:16;5.40;99.90
35381;DHT22;21486;51.916;8.378;2024-03-25T06:38:42;5.40;99.90
35381;DHT22;21486;51.916;8.378;2024-03-25T06:41:08;5.50;99.90
35381;DHT22;21486;51.916;8.378;2024-03-25T06:43:34;5.50;99.90
35381;DHT22;21486;51.916;8.378;2024-03-25T06:45:59;5.50;99.90
35381;DHT22;21486;51.916;8.378;2024-03-25T06:48:25;5.50;99.90
35381;DHT22;21486;51.916;8.378;2024-03-25T06:50:59;5.60;99.90
35381;DHT22;21486;51.916;8.378;2024-03-25T06:53:25;5.50;99.90
35381;DHT22;21486;51.916;8.378;2024-03-25T06:55:55;5.60;99.90
35381;DHT22;21486;51.916;8.378;2024-03-25T06:58:22;5.60;99.90
35381;DHT22;21486;51.916;8.378;2024-03-25T07:00:48;5.60;99.90
35381;DHT22;21486;51.916;8.378;2024-03-25T07:03:18;5.50;99.90
35381;DHT22;21486;51.916;8.378;2024-03-25T07:05:50;5.60;99.90
35381;DHT22;21486;51.916;8.378;2024-03-25T07:08:18;5.70;99.90
35381;DHT22;21486;51.916;8.378;2024-03-25T07:10:45;5.80;99.90
35381;DHT22;21486;51.916;8.378;2024-03-25T07:13:11;5.90;99.90
35381;DHT22;21486;51.916;8.378;2024-03-25T07:15:37;6.00;99.90
35381;DHT22;21486;51.916;8.378;2024-03-25T07:18:02;6.10;99.90
35381;DHT22;21486;51.916;8.378;2024-03-25T07:20:29;6.10;99.90
35381;DHT22;21486;51.916;8.378;2024-03-25T07:22:54;6.20;99.90
35381;DHT22;21486;51.916;8.378;2024-03-25T07:25:25;6.30;99.90
35381;DHT22;21486;51.916;8.378;2024-03-25T07:27:51;6.40;99.90
35381;DHT22;21486;51.916;8.378;2024-03-25T07:30:18;6.30;99.90
35381;DHT22;21486;51.916;8.378;2024-03-25T07:32:44;6.40;99.90
35381;DHT22;21486;51.916;8.378;2024-03-25T07:35:13;6.50;99.90
35381;DHT22;21486;51.916;8.378;2024-03-25T07:37:42;6.50;99.90
35381;DHT22;21486;51.916;8.378;2024-03-25T07:40:08;6.40;99.90
35381;DHT22;21486;51.916;8.378;2024-03-25T07:42:35;6.40;99.90
35381;DHT22;21486;51.916;8.378;2024-03-25T07:45:01;6.30;99.90
35381;DHT22;21486;51.916;8.378;2024-03-25T07:47:26;6.20;99.90
35381;DHT22;21486;51.916;8.378;2024-03-25T07:49:52;6.10;99.90
35381;DHT22;21486;51.916;8.378;2024-03-25T07:52:17;6.20;99.90
35381;DHT22;21486;51.916;8.378;2024-03-25T07:54:43;6.00;99.90
35381;DHT22;21486;51.916;8.378;2024-03-25T07:57:09;6.00;99.90
35381;DHT22;21486;51.916;8.378;2024-03-25T07:59:35;6.00;99.90
35381;DHT22;21486;51.916;8.378;2024-03-25T08:02:00;6.10;99.90
35381;DHT22;21486;51.916;8.378;2024-03-25T08:04:26;6.20;99.90
35381;DHT22;21486;51.916;8.378;2024-03-25T08:06:51;6.50;99.90
35381;DHT22;21486;51.916;8.378;2024-03-25T08:09:17;6.70;99.90
35381;DHT22;21486;51.916;8.378;2024-03-25T08:11:43;6.90;99.90
35381;DHT22;21486;51.916;8.378;2024-03-25T08:14:09;6.90;99.90
35381;DHT22;21486;51.916;8.378;2024-03-25T08:16:35;6.70;99.90
35381;DHT22;21486;51.916;8.378;2024-03-25T08:19:01;6.80;99.90
35381;DHT22;21486;51.916;8.378;2024-03-25T08:21:26;6.70;99.90
35381;DHT22;21486;51.916;8.378;2024-03-25T08:23:52;6.90;99.90
35381;DHT22;21486;51.916;8.378;2024-03-25T08:26:17;6.90;99.90
35381;DHT22;21486;51.916;8.378;2024-03-25T08:28:43;6.80;99.90
35381;DHT22;21486;51.916;8.378;2024-03-25T08:31:08;6.90;99.90
35381;DHT22;21486;51.916;8.378;2024-03-25T08:33:34;6.90;99.90
35381;DHT22;21486;51.916;8.378;2024-03-25T08:35:59;7.00;99.90
35381;DHT22;21486;51.916;8.378;2024-03-25T08:38:25;7.20;99.90
35381;DHT22;21486;51.916;8.378;2024-03-25T08:40:51;7.30;99.90
35381;DHT22;21486;51.916;8.378;2024-03-25T08:43:17;7.30;99.90
35381;DHT22;21486;51.916;8.378;2024-03-25T08:45:43;7.30;99.90
35381;DHT22;21486;51.916;8.378;2024-03-25T08:48:09;7.30;99.90
35381;DHT22;21486;51.916;8.378;2024-03-25T08:50:34;7.30;99.90
35381;DHT22;21486;51.916;8.378;2024-03-25T08:53:00;7.40;99.90
35381;DHT22;21486;51.916;8.378;2024-03-25T08:55:27;7.30;99.90
35381;DHT22;21486;51.916;8.378;2024-03-25T08:57:53;7.50;99.90
35381;DHT22;21486;51.916;8.378;2024-03-25T09:00:18;7.70;99.90
35381;DHT22;21486;51.916;8.378;2024-03-25T09:02:44;8.00;99.90
35381;DHT22;21486;51.916;8.378;2024-03-25T09:05:09;8.40;99.90
35381;DHT22;21486;51.916;8.378;2024-03-25T09:07:36;8.70;99.90
35381;DHT22;21486;51.916;8.378;2024-03-25T09:10:01;9.30;99.90
35381;DHT22;21486;51.916;8.378;2024-03-25T09:12:46;10.10;99.90
35381;DHT22;21486;51.916;8.378;2024-03-25T09:15:11;10.50;99.90
35381;DHT22;21486;51.916;8.378;2024-03-25T09:17:37;10.70;99.90
35381;DHT22;21486;51.916;8.378;2024-03-25T09:20:03;10.60;99.90
35381;DHT22;21486;51.916;8.378;2024-03-25T09:22:46;10.60;99.90
35381;DHT22;21486;51.916;8.378;2024-03-25T09:25:16;10.10;99.90
35381;DHT22;21486;51.916;8.378;2024-03-25T09:27:46;10.20;99.90
35381;DHT22;21486;51.916;8.378;2024-03-25T09:30:12;11.00;99.90
35381;DHT22;21486;51.916;8.378;2024-03-25T09:32:37;11.40;99.90
35381;DHT22;21486;51.916;8.378;2024-03-25T09:35:04;11.30;99.90
35381;DHT22;21486;51.916;8.378;2024-03-25T09:37:29;11.30;99.90
35381;DHT22;21486;51.916;8.378;2024-03-25T09:39:56;11.10;99.90
35381;DHT22;21486;51.916;8.378;2024-03-25T09:42:26;11.50;99.90
35381;DHT22;21486;51.916;8.378;2024-03-25T09:44:56;12.10;99.90
35381;DHT22;21486;51.916;8.378;2024-03-25T09:47:22;12.80;99.90
35381;DHT22;21486;51.916;8.378;2024-03-25T09:49:48;12.80;98.40
35381;DHT22;21486;51.916;8.378;2024-03-25T09:52:18;12.50;98.70
35381;DHT22;21486;51.916;8.378;2024-03-25T09:54:44;12.30;98.30
35381;DHT22;21486;51.916;8.378;2024-03-25T09:57:10;11.10;99.90
35381;DHT22;21486;51.916;8.378;2024-03-25T09:59:36;10.40;99.90
35381;DHT22;21486;51.916;8.378;2024-03-25T10:02:02;9.70;99.90
35381;DHT22;21486;51.916;8.378;2024-03-25T10:04:29;9.20;99.90
35381;DHT22;21486;51.916;8.378;2024-03-25T10:06:55;8.80;99.90
35381;DHT22;21486;51.916;8.378;2024-03-25T10:09:21;8.80;99.90
35381;DHT22;21486;51.916;8.378;2024-03-25T10:11:48;8.70;99.90
35381;DHT22;21486;51.916;8.378;2024-03-25T10:14:15;8.60;99.90
35381;DHT22;21486;51.916;8.378;2024-03-25T10:16:41;8.60;99.90
35381;DHT22;21486;51.916;8.378;2024-03-25T10:19:06;8.50;99.90
35381;DHT22;21486;51.916;8.378;2024-03-25T10:21:33;8.60;99.90
35381;DHT22;21486;51.916;8.378;2024-03-25T10:23:58;8.70;99.90
35381;DHT22;21486;51.916;8.378;2024-03-25T10:26:28;8.80;99.90
35381;DHT22;21486;51.916;8.378;2024-03-25T10:29:05;9.10;99.90
35381;DHT22;21486;51.916;8.378;2024-03-25T10:31:34;9.90;99.90
35381;DHT22;21486;51.916;8.378;2024-03-25T10:34:00;10.60;99.90
35381;DHT22;21486;51.916;8.378;2024-03-25T10:36:26;10.80;99.90
35381;DHT22;21486;51.916;8.378;2024-03-25T10:38:56;10.80;95.80
35381;DHT22;21486;51.916;8.378;2024-03-25T10:41:22;11.10;98.20
35381;DHT22;21486;51.916;8.378;2024-03-25T10:43:49;10.80;93.30
35381;DHT22;21486;51.916;8.378;2024-03-25T10:46:19;10.30;95.60
35381;DHT22;21486;51.916;8.378;2024-03-25T10:49:11;10.40;97.20
35381;DHT22;21486;51.916;8.378;2024-03-25T10:51:40;10.70;96.20
35381;DHT22;21486;51.916;8.378;2024-03-25T10:54:07;10.60;97.10
35381;DHT22;21486;51.916;8.378;2024-03-25T10:56:33;10.20;96.10
35381;DHT22;21486;51.916;8.378;2024-03-25T10:59:00;10.20;94.90
35381;DHT22;21486;51.916;8.378;2024-03-25T11:01:26;10.50;94.30
35381;DHT22;21486;51.916;8.378;2024-03-25T11:03:52;10.60;96.80
35381;DHT22;21486;51.916;8.378;2024-03-25T11:06:18;11.10;94.40
35381;DHT22;21486;51.916;8.378;2024-03-25T11:08:43;11.20;92.80
35381;DHT22;21486;51.916;8.378;2024-03-25T11:11:13;11.40;92.30
35381;DHT22;21486;51.916;8.378;2024-03-25T11:13:39;11.20;90.60
35381;DHT22;21486;51.916;8.378;2024-03-25T11:16:06;10.80;91.20
35381;DHT22;21486;51.916;8.378;2024-03-25T11:18:32;10.50;93.70
35381;DHT22;21486;51.916;8.378;2024-03-25T11:21:05;10.50;93.10
35381;DHT22;21486;51.916;8.378;2024-03-25T11:23:49;10.30;95.10
35381;DHT22;21486;51.916;8.378;2024-03-25T11:26:19;10.50;96.40
35381;DHT22;21486;51.916;8.378;2024-03-25T11:28:45;10.70;96.10
35381;DHT22;21486;51.916;8.378;2024-03-25T11:31:11;10.60;94.60
35381;DHT22;21486;51.916;8.378;2024-03-25T11:33:40;10.80;93.60
35381;DHT22;21486;51.916;8.378;2024-03-25T11:36:06;11.10;94.30
35381;DHT22;21486;51.916;8.378;2024-03-25T11:38:32;10.90;92.00
35381;DHT22;21486;51.916;8.378;2024-03-25T11:40:57;10.70;94.40
35381;DHT22;21486;51.916;8.378;2024-03-25T11:43:23;10.60;95.00
35381;DHT22;21486;51.916;8.378;2024-03-25T11:45:50;10.50;97.00
35381;DHT22;21486;51.916;8.378;2024-03-25T11:48:16;11.00;92.70
35381;DHT22;21486;51.916;8.378;2024-03-25T11:50:45;10.70;90.40
35381;DHT22;21486;51.916;8.378;2024-03-25T11:53:12;10.70;92.50
35381;DHT22;21486;51.916;8.378;2024-03-25T11:55:38;10.80;94.60
35381;DHT22;21486;51.916;8.378;2024-03-25T11:58:04;10.80;91.70
35381;DHT22;21486;51.916;8.378;2024-03-25T12:00:30;11.10;90.50
35381;DHT22;21486;51.916;8.378;2024-03-25T12:02:56;11.00;88.70
35381;DHT22;21486;51.916;8.378;2024-03-25T12:05:22;10.60;92.60
35381;DHT22;21486;51.916;8.378;2024-03-25T12:07:47;10.50;92.60
35381;DHT22;21486;51.916;8.378;2024-03-25T12:10:15;10.20;91.80
35381;DHT22;21486;51.916;8.378;2024-03-25T12:12:59;10.20;93.00
35381;DHT22;21486;51.916;8.378;2024-03-25T12:15:25;10.10;95.40
35381;DHT22;21486;51.916;8.378;2024-03-25T12:17:52;10.40;96.60
35381;DHT22;21486;51.916;8.378;2024-03-25T12:20:18;10.30;95.70
35381;DHT22;21486;51.916;8.378;2024-03-25T12:22:44;10.40;96.60
35381;DHT22;21486;51.916;8.378;2024-03-25T12:25:10;10.60;95.70
35381;DHT22;21486;51.916;8.378;2024-03-25T12:27:37;10.50;96.60
35381;DHT22;21486;51.916;8.378;2024-03-25T12:30:08;10.40;95.40
35381;DHT22;21486;51.916;8.378;2024-03-25T12:32:43;10.50;94.10
35381;DHT22;21486;51.916;8.378;2024-03-25T12:35:13;11.10;93.20
35381;DHT22;21486;51.916;8.378;2024-03-25T12:37:40;11.80;88.50
35381;DHT22;21486;51.916;8.378;2024-03-25T12:40:07;12.60;90.30
35381;DHT22;21486;51.916;8.378;2024-03-25T12:42:34;13.50;76.00
35381;DHT22;21486;51.916;8.378;2024-03-25T12:45:00;13.90;74.70
35381;DHT22;21486;51.916;8.378;2024-03-25T12:47:25;13.60;78.10
35381;DHT22;21486;51.916;8.378;2024-03-25T12:49:51;13.70;75.20
35381;DHT22;21486;51.916;8.378;2024-03-25T12:52:17;13.60;70.30
35381;DHT22;21486;51.916;8.378;2024-03-25T12:54:42;13.20;68.00
35381;DHT22;21486;51.916;8.378;2024-03-25T12:57:08;12.60;67.60
35381;DHT22;21486;51.916;8.378;2024-03-25T12:59:34;12.90;67.80
35381;DHT22;21486;51.916;8.378;2024-03-25T13:02:00;12.80;68.40
35381;DHT22;21486;51.916;8.378;2024-03-25T13:04:26;13.40;64.80
35381;DHT22;21486;51.916;8.378;2024-03-25T13:06:52;13.10;63.80
35381;DHT22;21486;51.916;8.378;2024-03-25T13:09:17;13.90;63.80
35381;DHT22;21486;51.916;8.378;2024-03-25T13:11:43;14.20;63.60
35381;DHT22;21486;51.916;8.378;2024-03-25T13:14:11;14.40;63.00
35381;DHT22;21486;51.916;8.378;2024-03-25T13:16:37;13.80;59.10
35381;DHT22;21486;51.916;8.378;2024-03-25T13:19:03;13.00;60.70
35381;DHT22;21486;51.916;8.378;2024-03-25T13:21:29;12.10;64.20
35381;DHT22;21486;51.916;8.378;2024-03-25T13:23:55;11.90;70.00
35381;DHT22;21486;51.916;8.378;2024-03-25T13:26:20;11.80;68.10
35381;DHT22;21486;51.916;8.378;2024-03-25T13:28:46;11.70;66.60
35381;DHT22;21486;51.916;8.378;2024-03-25T13:31:11;12.10;67.60
35381;DHT22;21486;51.916;8.378;2024-03-25T13:33:40;12.20;68.90
35381;DHT22;21486;51.916;8.378;2024-03-25T13:36:06;11.90;74.80
35381;DHT22;21486;51.916;8.378;2024-03-25T13:38:32;11.50;70.20
35381;DHT22;21486;51.916;8.378;2024-03-25T13:40:59;11.30;68.40
35381;DHT22;21486;51.916;8.378;2024-03-25T13:43:25;11.70;75.40
35381;DHT22;21486;51.916;8.378;2024-03-25T13:45:50;12.30;70.00
35381;DHT22;21486;51.916;8.378;2024-03-25T13:48:16;12.70;64.20
35381;DHT22;21486;51.916;8.378;2024-03-25T13:50:42;12.50;63.10
35381;DHT22;21486;51.916;8.378;2024-03-25T13:53:08;12.10;64.90
35381;DHT22;21486;51.916;8.378;2024-03-25T13:55:35;11.60;65.00
35381;DHT22;21486;51.916;8.378;2024-03-25T13:58:00;11.20;70.30
35381;DHT22;21486;51.916;8.378;2024-03-25T14:00:26;11.30;72.30
35381;DHT22;21486;51.916;8.378;2024-03-25T14:02:56;11.20;71.30
35381;DHT22;21486;51.916;8.378;2024-03-25T14:05:22;11.40;74.90
35381;DHT22;21486;51.916;8.378;2024-03-25T14:07:49;11.50;72.30
35381;DHT22;21486;51.916;8.378;2024-03-25T14:10:14;11.40;69.70
35381;DHT22;21486;51.916;8.378;2024-03-25T14:12:40;11.20;69.40
35381;DHT22;21486;51.916;8.378;2024-03-25T14:15:07;11.00;68.20
35381;DHT22;21486;51.916;8.378;2024-03-25T14:17:33;11.00;71.30
35381;DHT22;21486;51.916;8.378;2024-03-25T14:19:59;10.90;68.40
35381;DHT22;21486;51.916;8.378;2024-03-25T14:22:24;10.60;70.30
35381;DHT22;21486;51.916;8.378;2024-03-25T14:24:50;10.50;70.50
35381;DHT22;21486;51.916;8.378;2024-03-25T14:27:22;10.40;72.00
35381;DHT22;21486;51.916;8.378;2024-03-25T14:29:47;10.30;74.50
35381;DHT22;21486;51.916;8.378;2024-03-25T14:32:13;10.40;73.10
35381;DHT22;21486;51.916;8.378;2024-03-25T14:34:38;10.40;72.10
35381;DHT22;21486;51.916;8.378;2024-03-25T14:37:04;10.10;75.00
35381;DHT22;21486;51.916;8.378;2024-03-25T14:39:30;10.00;77.00
35381;DHT22;21486;51.916;8.378;2024-03-25T14:41:56;10.10;76.60
35381;DHT22;21486;51.916;8.378;2024-03-25T14:44:21;10.20;80.00
35381;DHT22;21486;51.916;8.378;2024-03-25T14:46:47;10.30;77.70
35381;DHT22;21486;51.916;8.378;2024-03-25T14:49:13;10.40;77.00
35381;DHT22;21486;51.916;8.378;2024-03-25T14:51:38;10.70;77.00
35381;DHT22;21486;51.916;8.378;2024-03-25T14:54:05;10.70;74.90
35381;DHT22;21486;51.916;8.378;2024-03-25T14:56:30;11.00;77.00
35381;DHT22;21486;51.916;8.378;2024-03-25T14:58:56;10.80;73.60
35381;DHT22;21486;51.916;8.378;2024-03-25T15:01:21;10.50;72.40
35381;DHT22;21486;51.916;8.378;2024-03-25T15:03:47;10.40;74.80
35381;DHT22;21486;51.916;8.378;2024-03-25T15:06:13;10.50;75.90
35381;DHT22;21486;51.916;8.378;2024-03-25T15:08:38;10.70;73.30
35381;DHT22;21486;51.916;8.378;2024-03-25T15:11:05;10.50;73.20
35381;DHT22;21486;51.916;8.378;2024-03-25T15:13:31;10.60;72.90
35381;DHT22;21486;51.916;8.378;2024-03-25T15:15:57;10.60;73.10
35381;DHT22;21486;51.916;8.378;2024-03-25T15:18:22;10.50;73.80
35381;DHT22;21486;51.916;8.378;2024-03-25T15:21:02;10.60;78.10
35381;DHT22;21486;51.916;8.378;2024-03-25T15:23:28;10.70;73.30
35381;DHT22;21486;51.916;8.378;2024-03-25T15:25:54;10.70;72.30
35381;DHT22;21486;51.916;8.378;2024-03-25T15:28:20;10.70;74.80
35381;DHT22;21486;51.916;8.378;2024-03-25T15:30:46;10.80;71.80
35381;DHT22;21486;51.916;8.378;2024-03-25T15:33:13;10.70;71.40
35381;DHT22;21486;51.916;8.378;2024-03-25T15:35:39;10.80;70.70